sensor_id;sensor_type;location;lat;lon;timestamp;temperature;humidity
12233;DHT22;6179;51.748;8.728;2023-04-29T00:05:44;13.50;98.30
12233;DHT22;6179;51.748;8.728;2023-04-29T00:11:44;13.70;98.30
12233;DHT22;6179;51.748;8.728;2023-04-29T00:17:46;13.60;98.30
12233;DHT22;6179;51.748;8.728;2023-04-29T00:23:47;13.20;98.30
12233;DHT22;6179;51.748;8.728;2023-04-29T00:29:48;13.10;98.30
12233;DHT22;6179;51.748;8.728;2023-04-29T00:35:48;13.10;98.30
12233;DHT22;6179;51.748;8.728;2023-04-29T00:41:49;13.30;98.30
12233;DHT22;6179;51.748;8.728;2023-04-29T00:47:50;13.00;98.30
12233;DHT22;6179;51.748;8.728;2023-04-29T00:53:51;12.70;98.30
12233;DHT22;6179;51.748;8.728;2023-04-29T00:59:52;12.70;98.30
12233;DHT22;6179;51.748;8.728;2023-04-29T01:06:02;12.80;98.30
12233;DHT22;6179;51.748;8.728;2023-04-29T01:12:32;12.80;98.30
12233;DHT22;6179;51.748;8.728;2023-04-29T01:18:40;12.80;98.30
12233;DHT22;6179;51.748;8.728;2023-04-29T01:24:41;12.70;98.30
12233;DHT22;6179;51.748;8.728;2023-04-29T01:30:56;12.80;98.30
12233;DHT22;6179;51.748;8.728;2023-04-29T01:37:06;12.70;98.30
12233;DHT22;6179;51.748;8.728;2023-04-29T01:43:10;12.40;98.30
12233;DHT22;6179;51.748;8.728;2023-04-29T01:49:11;12.20;98.30
12233;DHT22;6179;51.748;8.728;2023-04-29T01:55:12;12.30;98.30
12233;DHT22;6179;51.748;8.728;2023-04-29T02:01:13;12.00;98.30
12233;DHT22;6179;51.748;8.728;2023-04-29T02:07:14;12.10;98.30
12233;DHT22;6179;51.748;8.728;2023-04-29T02:13:39;12.00;98.30
12233;DHT22;6179;51.748;8.728;2023-04-29T02:20:06;12.30;98.30
12233;DHT22;6179;51.748;8.728;2023-04-29T02:26:32;12.00;98.30
12233;DHT22;6179;51.748;8.728;2023-04-29T02:32:59;11.70;98.30
12233;DHT22;6179;51.748;8.728;2023-04-29T02:39:03;11.70;98.30
12233;DHT22;6179;51.748;8.728;2023-04-29T02:45:05;11.60;98.30
12233;DHT22;6179;51.748;8.728;2023-04-29T02:51:05;11.60;98.30
12233;DHT22;6179;51.748;8.728;2023-04-29T02:57:06;11.60;98.30
12233;DHT22;6179;51.748;8.728;2023-04-29T03:03:07;11.60;98.30
12233;DHT22;6179;51.748;8.728;2023-04-29T03:09:08;11.60;98.30
12233;DHT22;6179;51.748;8.728;2023-04-29T03:15:08;11.40;98.30
12233;DHT22;6179;51.748;8.728;2023-04-29T03:21:10;11.10;98.30
12233;DHT22;6179;51.748;8.728;2023-04-29T03:27:10;11.00;98.30
12233;DHT22;6179;51.748;8.728;2023-04-29T03:33:11;10.90;98.30
12233;DHT22;6179;51.748;8.728;2023-04-29T03:39:11;10.90;98.30
12233;DHT22;6179;51.748;8.728;2023-04-29T03:45:12;11.00;98.30
12233;DHT22;6179;51.748;8.728;2023-04-29T03:51:13;11.20;98.30
12233;DHT22;6179;51.748;8.728;2023-04-29T03:57:14;11.20;98.30
12233;DHT22;6179;51.748;8.728;2023-04-29T04:03:14;10.90;98.30
12233;DHT22;6179;51.748;8.728;2023-04-29T04:09:16;10.70;98.30
12233;DHT22;6179;51.748;8.728;2023-04-29T04:15:16;10.40;98.30
12233;DHT22;6179;51.748;8.728;2023-04-29T04:21:17;10.30;98.30
12233;DHT22;6179;51.748;8.728;2023-04-29T04:27:18;10.50;98.30
12233;DHT22;6179;51.748;8.728;2023-04-29T04:33:18;10.60;98.30
12233;DHT22;6179;51.748;8.728;2023-04-29T04:39:19;10.40;98.30
12233;DHT22;6179;51.748;8.728;2023-04-29T04:45:19;10.70;98.30
12233;DHT22;6179;51.748;8.728;2023-04-29T04:51:21;10.60;98.30
12233;DHT22;6179;51.748;8.728;2023-04-29T04:57:22;10.70;98.30
12233;DHT22;6179;51.748;8.728;2023-04-29T05:03:23;10.90;98.30
12233;DHT22;6179;51.748;8.728;2023-04-29T05:09:23;11.00;98.30
12233;DHT22;6179;51.748;8.728;2023-04-29T05:15:24;10.80;98.30
12233;DHT22;6179;51.748;8.728;2023-04-29T05:21:26;10.70;98.30
12233;DHT22;6179;51.748;8.728;2023-04-29T05:27:27;11.00;98.30
12233;DHT22;6179;51.748;8.728;2023-04-29T05:33:28;10.50;98.30
12233;DHT22;6179;51.748;8.728;2023-04-29T05:39:29;10.70;98.30
12233;DHT22;6179;51.748;8.728;2023-04-29T05:45:29;11.00;98.30
12233;DHT22;6179;51.748;8.728;2023-04-29T05:51:30;10.90;98.30
12233;DHT22;6179;51.748;8.728;2023-04-29T05:57:31;11.00;98.30
12233;DHT22;6179;51.748;8.728;2023-04-29T06:03:32;10.90;98.30
12233;DHT22;6179;51.748;8.728;2023-04-29T06:09:36;11.10;98.30
12233;DHT22;6179;51.748;8.728;2023-04-29T06:15:38;11.00;98.30
12233;DHT22;6179;51.748;8.728;2023-04-29T06:21:38;10.90;98.30
12233;DHT22;6179;51.748;8.728;2023-04-29T06:27:39;11.00;98.30
12233;DHT22;6179;51.748;8.728;2023-04-29T06:33:40;10.90;98.30
12233;DHT22;6179;51.748;8.728;2023-04-29T06:39:41;11.10;98.30
12233;DHT22;6179;51.748;8.728;2023-04-29T06:45:45;10.70;98.30
12233;DHT22;6179;51.748;8.728;2023-04-29T06:51:46;11.20;98.30
12233;DHT22;6179;51.748;8.728;2023-04-29T06:57:47;11.00;98.30
12233;DHT22;6179;51.748;8.728;2023-04-29T07:03:48;11.20;98.30
12233;DHT22;6179;51.748;8.728;2023-04-29T07:09:48;11.30;98.30
12233;DHT22;6179;51.748;8.728;2023-04-29T07:15:51;11.60;98.30
12233;DHT22;6179;51.748;8.728;2023-04-29T07:21:52;11.60;98.30
12233;DHT22;6179;51.748;8.728;2023-04-29T07:27:52;11.40;98.30
12233;DHT22;6179;51.748;8.728;2023-04-29T07:33:53;11.40;98.30
12233;DHT22;6179;51.748;8.728;2023-04-29T07:39:54;11.60;98.30
12233;DHT22;6179;51.748;8.728;2023-04-29T07:45:55;11.70;98.30
12233;DHT22;6179;51.748;8.728;2023-04-29T07:51:56;11.70;98.30
12233;DHT22;6179;51.748;8.728;2023-04-29T07:57:57;11.50;98.30
12233;DHT22;6179;51.748;8.728;2023-04-29T08:03:58;11.80;98.30
12233;DHT22;6179;51.748;8.728;2023-04-29T08:09:58;11.90;98.30
12233;DHT22;6179;51.748;8.728;2023-04-29T08:15:59;11.60;98.30
12233;DHT22;6179;51.748;8.728;2023-04-29T08:21:59;12.20;98.30
12233;DHT22;6179;51.748;8.728;2023-04-29T08:28:00;12.50;98.30
12233;DHT22;6179;51.748;8.728;2023-04-29T08:34:01;12.40;98.30
12233;DHT22;6179;51.748;8.728;2023-04-29T08:40:02;12.70;98.30
12233;DHT22;6179;51.748;8.728;2023-04-29T08:46:03;12.40;98.30
12233;DHT22;6179;51.748;8.728;2023-04-29T08:52:04;13.00;98.30
12233;DHT22;6179;51.748;8.728;2023-04-29T08:58:06;13.00;98.30
12233;DHT22;6179;51.748;8.728;2023-04-29T09:10:19;13.00;98.30
12233;DHT22;6179;51.748;8.728;2023-04-29T09:24:02;13.60;95.60
12233;DHT22;6179;51.748;8.728;2023-04-29T09:30:03;13.50;95.60
12233;DHT22;6179;51.748;8.728;2023-04-29T09:36:04;13.40;96.80
12233;DHT22;6179;51.748;8.728;2023-04-29T09:42:05;13.30;98.00
12233;DHT22;6179;51.748;8.728;2023-04-29T09:48:07;13.20;95.50
12233;DHT22;6179;51.748;8.728;2023-04-29T09:54:23;13.70;92.30
12233;DHT22;6179;51.748;8.728;2023-04-29T10:00:24;13.70;91.90
12233;DHT22;6179;51.748;8.728;2023-04-29T10:06:27;13.60;93.60
12233;DHT22;6179;51.748;8.728;2023-04-29T10:12:54;13.80;91.30
12233;DHT22;6179;51.748;8.728;2023-04-29T10:18:56;13.70;90.10
12233;DHT22;6179;51.748;8.728;2023-04-29T10:25:00;13.90;90.90
12233;DHT22;6179;51.748;8.728;2023-04-29T10:31:03;13.90;91.20
12233;DHT22;6179;51.748;8.728;2023-04-29T10:37:10;13.90;91.70
12233;DHT22;6179;51.748;8.728;2023-04-29T10:43:12;14.20;91.90
12233;DHT22;6179;51.748;8.728;2023-04-29T10:49:13;14.30;89.60
12233;DHT22;6179;51.748;8.728;2023-04-29T10:55:14;14.10;91.60
12233;DHT22;6179;51.748;8.728;2023-04-29T11:01:16;14.30;88.60
12233;DHT22;6179;51.748;8.728;2023-04-29T11:07:27;14.40;89.20
12233;DHT22;6179;51.748;8.728;2023-04-29T11:13:53;14.60;87.30
12233;DHT22;6179;51.748;8.728;2023-04-29T11:19:54;14.70;87.80
12233;DHT22;6179;51.748;8.728;2023-04-29T11:25:56;15.10;89.30
12233;DHT22;6179;51.748;8.728;2023-04-29T11:32:03;15.10;84.30
12233;DHT22;6179;51.748;8.728;2023-04-29T11:38:08;14.40;88.80
12233;DHT22;6179;51.748;8.728;2023-04-29T11:44:10;14.20;87.10
12233;DHT22;6179;51.748;8.728;2023-04-29T11:50:13;14.00;89.50
12233;DHT22;6179;51.748;8.728;2023-04-29T11:56:16;13.80;89.10
12233;DHT22;6179;51.748;8.728;2023-04-29T12:02:16;14.00;91.70
12233;DHT22;6179;51.748;8.728;2023-04-29T12:08:27;14.40;86.90
12233;DHT22;6179;51.748;8.728;2023-04-29T12:21:48;14.50;85.30
12233;DHT22;6179;51.748;8.728;2023-04-29T12:27:49;14.50;87.40
12233;DHT22;6179;51.748;8.728;2023-04-29T12:33:53;14.70;85.50
12233;DHT22;6179;51.748;8.728;2023-04-29T12:39:55;14.90;84.00
12233;DHT22;6179;51.748;8.728;2023-04-29T12:46:08;15.10;82.20
12233;DHT22;6179;51.748;8.728;2023-04-29T12:52:09;15.70;82.40
12233;DHT22;6179;51.748;8.728;2023-04-29T12:58:10;15.40;81.70
12233;DHT22;6179;51.748;8.728;2023-04-29T13:04:10;15.20;81.90
12233;DHT22;6179;51.748;8.728;2023-04-29T13:10:11;14.80;83.00
12233;DHT22;6179;51.748;8.728;2023-04-29T13:16:13;14.70;84.90
12233;DHT22;6179;51.748;8.728;2023-04-29T13:22:13;14.60;83.10
12233;DHT22;6179;51.748;8.728;2023-04-29T13:28:14;14.90;81.80
12233;DHT22;6179;51.748;8.728;2023-04-29T13:34:14;15.10;84.80
12233;DHT22;6179;51.748;8.728;2023-04-29T13:40:15;15.50;80.00
12233;DHT22;6179;51.748;8.728;2023-04-29T13:46:16;15.70;79.40
12233;DHT22;6179;51.748;8.728;2023-04-29T13:52:16;15.40;78.80
12233;DHT22;6179;51.748;8.728;2023-04-29T13:58:17;15.10;81.10
12233;DHT22;6179;51.748;8.728;2023-04-29T14:04:18;14.80;80.50
12233;DHT22;6179;51.748;8.728;2023-04-29T14:10:18;14.80;83.00
12233;DHT22;6179;51.748;8.728;2023-04-29T14:16:19;15.00;80.50
12233;DHT22;6179;51.748;8.728;2023-04-29T14:22:20;14.90;82.20
12233;DHT22;6179;51.748;8.728;2023-04-29T14:28:21;14.80;80.90
12233;DHT22;6179;51.748;8.728;2023-04-29T14:34:22;14.70;83.00
12233;DHT22;6179;51.748;8.728;2023-04-29T14:40:22;14.70;81.40
12233;DHT22;6179;51.748;8.728;2023-04-29T14:46:23;15.40;80.10
12233;DHT22;6179;51.748;8.728;2023-04-29T14:52:24;15.30;79.50
12233;DHT22;6179;51.748;8.728;2023-04-29T14:58:25;15.10;79.70
12233;DHT22;6179;51.748;8.728;2023-04-29T15:04:26;15.10;80.50
12233;DHT22;6179;51.748;8.728;2023-04-29T15:10:27;15.10;81.20
12233;DHT22;6179;51.748;8.728;2023-04-29T15:16:29;14.80;82.80
12233;DHT22;6179;51.748;8.728;2023-04-29T15:22:29;14.90;81.10
12233;DHT22;6179;51.748;8.728;2023-04-29T15:28:30;14.90;80.80
12233;DHT22;6179;51.748;8.728;2023-04-29T15:34:31;14.60;82.30
12233;DHT22;6179;51.748;8.728;2023-04-29T15:40:31;15.00;83.10
12233;DHT22;6179;51.748;8.728;2023-04-29T15:46:32;15.10;81.90
12233;DHT22;6179;51.748;8.728;2023-04-29T15:52:33;15.10;81.70
12233;DHT22;6179;51.748;8.728;2023-04-29T15:58:33;15.40;80.60
12233;DHT22;6179;51.748;8.728;2023-04-29T16:04:34;15.10;80.60
12233;DHT22;6179;51.748;8.728;2023-04-29T16:10:35;15.10;80.20
12233;DHT22;6179;51.748;8.728;2023-04-29T16:16:36;14.80;82.50
12233;DHT22;6179;51.748;8.728;2023-04-29T16:22:43;14.80;81.80
12233;DHT22;6179;51.748;8.728;2023-04-29T16:28:44;14.40;83.10
12233;DHT22;6179;51.748;8.728;2023-04-29T16:34:44;14.60;83.20
12233;DHT22;6179;51.748;8.728;2023-04-29T16:40:45;14.90;81.30
12233;DHT22;6179;51.748;8.728;2023-04-29T16:46:45;15.30;79.90
12233;DHT22;6179;51.748;8.728;2023-04-29T16:52:46;14.80;82.40
12233;DHT22;6179;51.748;8.728;2023-04-29T16:58:48;14.90;82.90
12233;DHT22;6179;51.748;8.728;2023-04-29T17:04:50;14.60;82.90
12233;DHT22;6179;51.748;8.728;2023-04-29T17:10:51;14.90;85.30
12233;DHT22;6179;51.748;8.728;2023-04-29T17:16:53;15.00;85.90
12233;DHT22;6179;51.748;8.728;2023-04-29T17:22:53;15.00;85.20
12233;DHT22;6179;51.748;8.728;2023-04-29T17:28:54;14.90;86.30
12233;DHT22;6179;51.748;8.728;2023-04-29T17:34:55;15.00;85.30
12233;DHT22;6179;51.748;8.728;2023-04-29T17:40:56;14.90;85.70
12233;DHT22;6179;51.748;8.728;2023-04-29T17:46:57;14.90;83.20
12233;DHT22;6179;51.748;8.728;2023-04-29T17:52:58;14.80;85.70
12233;DHT22;6179;51.748;8.728;2023-04-29T17:58:58;14.60;85.00
12233;DHT22;6179;51.748;8.728;2023-04-29T18:05:01;14.40;85.40
12233;DHT22;6179;51.748;8.728;2023-04-29T18:11:02;14.30;85.10
12233;DHT22;6179;51.748;8.728;2023-04-29T18:17:02;14.30;85.70
12233;DHT22;6179;51.748;8.728;2023-04-29T18:23:03;14.30;85.80
12233;DHT22;6179;51.748;8.728;2023-04-29T18:29:04;14.20;87.00
12233;DHT22;6179;51.748;8.728;2023-04-29T18:35:04;14.20;87.10
12233;DHT22;6179;51.748;8.728;2023-04-29T18:41:05;13.80;87.60
12233;DHT22;6179;51.748;8.728;2023-04-29T18:47:07;13.90;87.30
12233;DHT22;6179;51.748;8.728;2023-04-29T18:53:08;13.90;87.30
12233;DHT22;6179;51.748;8.728;2023-04-29T18:59:09;13.70;86.90
12233;DHT22;6179;51.748;8.728;2023-04-29T19:05:11;13.50;87.80
12233;DHT22;6179;51.748;8.728;2023-04-29T19:11:13;13.30;87.20
12233;DHT22;6179;51.748;8.728;2023-04-29T19:17:13;13.00;87.90
12233;DHT22;6179;51.748;8.728;2023-04-29T19:23:15;12.70;88.40
12233;DHT22;6179;51.748;8.728;2023-04-29T19:29:15;12.30;90.40
12233;DHT22;6179;51.748;8.728;2023-04-29T19:35:16;12.00;91.30
12233;DHT22;6179;51.748;8.728;2023-04-29T19:41:17;11.70;91.70
12233;DHT22;6179;51.748;8.728;2023-04-29T19:47:17;11.50;92.90
12233;DHT22;6179;51.748;8.728;2023-04-29T19:53:18;11.30;93.40
12233;DHT22;6179;51.748;8.728;2023-04-29T19:59:19;11.10;93.70
12233;DHT22;6179;51.748;8.728;2023-04-29T20:05:20;10.90;94.20
12233;DHT22;6179;51.748;8.728;2023-04-29T20:11:21;10.90;94.70
12233;DHT22;6179;51.748;8.728;2023-04-29T20:17:24;10.70;95.20
12233;DHT22;6179;51.748;8.728;2023-04-29T20:23:24;10.50;95.10
12233;DHT22;6179;51.748;8.728;2023-04-29T20:29:25;10.60;95.10
12233;DHT22;6179;51.748;8.728;2023-04-29T20:35:26;10.40;95.80
12233;DHT22;6179;51.748;8.728;2023-04-29T20:41:27;10.00;96.70
12233;DHT22;6179;51.748;8.728;2023-04-29T20:47:28;9.90;97.80
12233;DHT22;6179;51.748;8.728;2023-04-29T20:53:29;9.80;98.10
12233;DHT22;6179;51.748;8.728;2023-04-29T20:59:31;9.70;98.30
12233;DHT22;6179;51.748;8.728;2023-04-29T21:05:32;9.50;98.20
12233;DHT22;6179;51.748;8.728;2023-04-29T21:11:33;9.30;98.30
12233;DHT22;6179;51.748;8.728;2023-04-29T21:17:34;9.20;98.30
12233;DHT22;6179;51.748;8.728;2023-04-29T21:23:35;9.10;98.30
12233;DHT22;6179;51.748;8.728;2023-04-29T21:29:36;8.90;98.30
12233;DHT22;6179;51.748;8.728;2023-04-29T21:35:40;8.80;98.30
12233;DHT22;6179;51.748;8.728;2023-04-29T21:41:42;8.60;98.30
12233;DHT22;6179;51.748;8.728;2023-04-29T21:47:43;8.50;98.30
12233;DHT22;6179;51.748;8.728;2023-04-29T21:53:44;8.30;98.30
12233;DHT22;6179;51.748;8.728;2023-04-29T21:59:45;8.20;98.30
12233;DHT22;6179;51.748;8.728;2023-04-29T22:05:45;8.00;98.30
12233;DHT22;6179;51.748;8.728;2023-04-29T22:11:46;7.90;98.30
12233;DHT22;6179;51.748;8.728;2023-04-29T22:17:47;7.80;98.30
12233;DHT22;6179;51.748;8.728;2023-04-29T22:23:47;7.70;98.30
12233;DHT22;6179;51.748;8.728;2023-04-29T22:29:48;7.60;98.30
12233;DHT22;6179;51.748;8.728;2023-04-29T22:35:49;7.50;98.30
12233;DHT22;6179;51.748;8.728;2023-04-29T22:41:49;7.60;98.30
12233;DHT22;6179;51.748;8.728;2023-04-29T22:47:50;7.50;98.30
12233;DHT22;6179;51.748;8.728;2023-04-29T22:53:51;7.40;98.30
12233;DHT22;6179;51.748;8.728;2023-04-29T22:59:54;7.30;98.30
12233;DHT22;6179;51.748;8.728;2023-04-29T23:05:59;7.10;98.30
12233;DHT22;6179;51.748;8.728;2023-04-29T23:11:59;7.10;98.30
12233;DHT22;6179;51.748;8.728;2023-04-29T23:18:01;6.90;98.30
12233;DHT22;6179;51.748;8.728;2023-04-29T23:24:02;6.80;98.30
12233;DHT22;6179;51.748;8.728;2023-04-29T23:30:03;6.80;98.30
12233;DHT22;6179;51.748;8.728;2023-04-29T23:36:04;6.60;98.30
12233;DHT22;6179;51.748;8.728;2023-04-29T23:42:05;6.60;98.30
12233;DHT22;6179;51.748;8.728;2023-04-29T23:48:05;6.50;98.30
12233;DHT22;6179;51.748;8.728;2023-04-29T23:54:13;6.40;98.30
